sensor_id;sensor_type;location;lat;lon;timestamp;P1;durP1;ratioP1;P2;durP2;ratioP2
70967;SDS011;58629;48.808;8.820;2023-12-04T00:00:39;12.53;;;5.73;;
70967;SDS011;58629;48.808;8.820;2023-12-04T00:03:04;12.03;;;5.60;;
70967;SDS011;58629;48.808;8.820;2023-12-04T00:05:29;13.50;;;5.80;;
70967;SDS011;58629;48.808;8.820;2023-12-04T00:07:55;12.65;;;5.47;;
70967;SDS011;58629;48.808;8.820;2023-12-04T00:10:20;11.57;;;5.40;;
70967;SDS011;58629;48.808;8.820;2023-12-04T00:12:46;12.33;;;5.40;;
70967;SDS011;58629;48.808;8.820;2023-12-04T00:15:11;11.97;;;5.23;;
70967;SDS011;58629;48.808;8.820;2023-12-04T00:17:37;11.18;;;5.00;;
70967;SDS011;58629;48.808;8.820;2023-12-04T00:20:05;10.10;;;4.75;;
70967;SDS011;58629;48.808;8.820;2023-12-04T00:22:31;13.35;;;5.47;;
70967;SDS011;58629;48.808;8.820;2023-12-04T00:24:57;10.67;;;4.53;;
70967;SDS011;58629;48.808;8.820;2023-12-04T00:27:22;13.48;;;5.38;;
70967;SDS011;58629;48.808;8.820;2023-12-04T00:29:52;12.10;;;5.37;;
70967;SDS011;58629;48.808;8.820;2023-12-04T00:32:17;10.77;;;4.68;;
70967;SDS011;58629;48.808;8.820;2023-12-04T00:34:43;12.97;;;6.13;;
70967;SDS011;58629;48.808;8.820;2023-12-04T00:37:08;13.07;;;5.68;;
70967;SDS011;58629;48.808;8.820;2023-12-04T00:39:33;14.67;;;6.30;;
70967;SDS011;58629;48.808;8.820;2023-12-04T00:41:59;14.77;;;6.80;;
70967;SDS011;58629;48.808;8.820;2023-12-04T00:44:24;13.87;;;6.13;;
70967;SDS011;58629;48.808;8.820;2023-12-04T00:46:49;14.03;;;6.20;;
70967;SDS011;58629;48.808;8.820;2023-12-04T00:49:15;13.77;;;6.13;;
70967;SDS011;58629;48.808;8.820;2023-12-04T00:51:40;13.10;;;6.10;;
70967;SDS011;58629;48.808;8.820;2023-12-04T00:54:05;13.87;;;6.50;;
70967;SDS011;58629;48.808;8.820;2023-12-04T00:56:31;14.70;;;6.00;;
70967;SDS011;58629;48.808;8.820;2023-12-04T00:58:56;13.65;;;5.93;;
70967;SDS011;58629;48.808;8.820;2023-12-04T01:01:22;13.85;;;6.03;;
70967;SDS011;58629;48.808;8.820;2023-12-04T01:03:48;14.20;;;6.40;;
70967;SDS011;58629;48.808;8.820;2023-12-04T01:06:20;14.07;;;6.50;;
70967;SDS011;58629;48.808;8.820;2023-12-04T01:08:47;14.63;;;6.35;;
70967;SDS011;58629;48.808;8.820;2023-12-04T01:11:13;13.00;;;6.03;;
70967;SDS011;58629;48.808;8.820;2023-12-04T01:13:39;14.05;;;6.35;;
70967;SDS011;58629;48.808;8.820;2023-12-04T01:16:05;13.83;;;6.60;;
70967;SDS011;58629;48.808;8.820;2023-12-04T01:18:31;13.97;;;6.10;;
70967;SDS011;58629;48.808;8.820;2023-12-04T01:20:56;13.20;;;5.50;;
70967;SDS011;58629;48.808;8.820;2023-12-04T01:23:21;15.70;;;6.33;;
70967;SDS011;58629;48.808;8.820;2023-12-04T01:25:47;12.47;;;6.03;;
70967;SDS011;58629;48.808;8.820;2023-12-04T01:28:12;14.93;;;6.27;;
70967;SDS011;58629;48.808;8.820;2023-12-04T01:30:39;13.98;;;5.70;;
70967;SDS011;58629;48.808;8.820;2023-12-04T01:33:04;15.57;;;6.10;;
70967;SDS011;58629;48.808;8.820;2023-12-04T01:35:30;12.30;;;5.63;;
70967;SDS011;58629;48.808;8.820;2023-12-04T01:37:55;12.37;;;5.33;;
70967;SDS011;58629;48.808;8.820;2023-12-04T01:40:20;11.57;;;5.17;;
70967;SDS011;58629;48.808;8.820;2023-12-04T01:42:46;11.30;;;5.03;;
70967;SDS011;58629;48.808;8.820;2023-12-04T01:45:11;13.27;;;5.82;;
70967;SDS011;58629;48.808;8.820;2023-12-04T01:47:36;13.70;;;6.13;;
70967;SDS011;58629;48.808;8.820;2023-12-04T01:50:03;17.00;;;6.60;;
70967;SDS011;58629;48.808;8.820;2023-12-04T01:52:29;13.80;;;6.17;;
70967;SDS011;58629;48.808;8.820;2023-12-04T01:54:55;14.32;;;6.40;;
70967;SDS011;58629;48.808;8.820;2023-12-04T01:57:20;14.67;;;5.97;;
70967;SDS011;58629;48.808;8.820;2023-12-04T01:59:46;13.88;;;5.82;;
70967;SDS011;58629;48.808;8.820;2023-12-04T02:02:12;12.53;;;6.10;;
70967;SDS011;58629;48.808;8.820;2023-12-04T02:04:38;11.10;;;5.32;;
70967;SDS011;58629;48.808;8.820;2023-12-04T02:07:03;13.32;;;5.63;;
70967;SDS011;58629;48.808;8.820;2023-12-04T02:09:29;13.07;;;5.32;;
70967;SDS011;58629;48.808;8.820;2023-12-04T02:11:55;11.70;;;5.47;;
70967;SDS011;58629;48.808;8.820;2023-12-04T02:14:22;11.27;;;5.10;;
70967;SDS011;58629;48.808;8.820;2023-12-04T02:16:47;12.27;;;5.10;;
70967;SDS011;58629;48.808;8.820;2023-12-04T02:19:13;13.37;;;5.37;;
70967;SDS011;58629;48.808;8.820;2023-12-04T02:21:39;14.77;;;6.38;;
70967;SDS011;58629;48.808;8.820;2023-12-04T02:24:05;13.02;;;6.25;;
70967;SDS011;58629;48.808;8.820;2023-12-04T02:26:32;13.23;;;5.82;;
70967;SDS011;58629;48.808;8.820;2023-12-04T02:29:04;13.47;;;5.73;;
70967;SDS011;58629;48.808;8.820;2023-12-04T02:31:33;12.68;;;5.80;;
70967;SDS011;58629;48.808;8.820;2023-12-04T02:34:00;14.77;;;6.25;;
70967;SDS011;58629;48.808;8.820;2023-12-04T02:36:29;14.20;;;6.15;;
70967;SDS011;58629;48.808;8.820;2023-12-04T02:38:56;13.90;;;6.00;;
70967;SDS011;58629;48.808;8.820;2023-12-04T02:41:21;13.13;;;6.00;;
70967;SDS011;58629;48.808;8.820;2023-12-04T02:43:47;13.57;;;5.50;;
70967;SDS011;58629;48.808;8.820;2023-12-04T02:46:12;15.23;;;5.83;;
70967;SDS011;58629;48.808;8.820;2023-12-04T02:48:37;14.67;;;5.77;;
70967;SDS011;58629;48.808;8.820;2023-12-04T02:51:03;13.27;;;5.70;;
70967;SDS011;58629;48.808;8.820;2023-12-04T02:53:28;13.02;;;5.68;;
70967;SDS011;58629;48.808;8.820;2023-12-04T02:55:54;12.60;;;5.33;;
70967;SDS011;58629;48.808;8.820;2023-12-04T02:58:19;11.23;;;5.13;;
70967;SDS011;58629;48.808;8.820;2023-12-04T03:00:44;15.33;;;5.87;;
70967;SDS011;58629;48.808;8.820;2023-12-04T03:03:10;12.93;;;5.60;;
70967;SDS011;58629;48.808;8.820;2023-12-04T03:05:35;13.47;;;5.13;;
70967;SDS011;58629;48.808;8.820;2023-12-04T03:08:00;11.47;;;5.17;;
70967;SDS011;58629;48.808;8.820;2023-12-04T03:10:26;12.80;;;5.00;;
70967;SDS011;58629;48.808;8.820;2023-12-04T03:12:51;11.40;;;4.70;;
70967;SDS011;58629;48.808;8.820;2023-12-04T03:15:16;12.03;;;5.23;;
70967;SDS011;58629;48.808;8.820;2023-12-04T03:17:42;9.87;;;4.60;;
70967;SDS011;58629;48.808;8.820;2023-12-04T03:20:07;10.80;;;5.07;;
70967;SDS011;58629;48.808;8.820;2023-12-04T03:22:34;12.23;;;5.53;;
70967;SDS011;58629;48.808;8.820;2023-12-04T03:25:04;12.57;;;5.13;;
70967;SDS011;58629;48.808;8.820;2023-12-04T03:27:30;12.70;;;5.28;;
70967;SDS011;58629;48.808;8.820;2023-12-04T03:29:55;12.73;;;5.10;;
70967;SDS011;58629;48.808;8.820;2023-12-04T03:32:20;10.83;;;4.80;;
70967;SDS011;58629;48.808;8.820;2023-12-04T03:34:46;10.73;;;4.73;;
70967;SDS011;58629;48.808;8.820;2023-12-04T03:37:11;9.73;;;4.43;;
70967;SDS011;58629;48.808;8.820;2023-12-04T03:39:36;10.73;;;4.77;;
70967;SDS011;58629;48.808;8.820;2023-12-04T03:42:02;11.37;;;4.77;;
70967;SDS011;58629;48.808;8.820;2023-12-04T03:44:27;10.68;;;4.72;;
70967;SDS011;58629;48.808;8.820;2023-12-04T03:46:53;10.47;;;4.70;;
70967;SDS011;58629;48.808;8.820;2023-12-04T03:49:18;9.70;;;4.37;;
70967;SDS011;58629;48.808;8.820;2023-12-04T03:51:44;10.03;;;4.93;;
70967;SDS011;58629;48.808;8.820;2023-12-04T03:54:09;11.57;;;5.00;;
70967;SDS011;58629;48.808;8.820;2023-12-04T03:56:34;13.30;;;5.47;;
70967;SDS011;58629;48.808;8.820;2023-12-04T03:59:00;13.70;;;5.85;;
70967;SDS011;58629;48.808;8.820;2023-12-04T04:01:25;13.55;;;5.65;;
70967;SDS011;58629;48.808;8.820;2023-12-04T04:03:50;12.07;;;4.97;;
70967;SDS011;58629;48.808;8.820;2023-12-04T04:06:16;11.43;;;4.90;;
70967;SDS011;58629;48.808;8.820;2023-12-04T04:08:41;11.43;;;5.00;;
70967;SDS011;58629;48.808;8.820;2023-12-04T04:11:06;11.13;;;4.60;;
70967;SDS011;58629;48.808;8.820;2023-12-04T04:13:32;11.77;;;5.07;;
70967;SDS011;58629;48.808;8.820;2023-12-04T04:15:57;10.70;;;4.83;;
70967;SDS011;58629;48.808;8.820;2023-12-04T04:18:23;10.90;;;4.72;;
70967;SDS011;58629;48.808;8.820;2023-12-04T04:20:48;10.13;;;4.47;;
70967;SDS011;58629;48.808;8.820;2023-12-04T04:23:13;9.30;;;4.23;;
70967;SDS011;58629;48.808;8.820;2023-12-04T04:25:39;9.60;;;4.23;;
70967;SDS011;58629;48.808;8.820;2023-12-04T04:28:04;8.07;;;3.80;;
70967;SDS011;58629;48.808;8.820;2023-12-04T04:30:29;10.33;;;4.40;;
70967;SDS011;58629;48.808;8.820;2023-12-04T04:32:55;9.53;;;4.40;;
70967;SDS011;58629;48.808;8.820;2023-12-04T04:35:20;7.93;;;3.63;;
70967;SDS011;58629;48.808;8.820;2023-12-04T04:37:45;7.97;;;3.50;;
70967;SDS011;58629;48.808;8.820;2023-12-04T04:40:11;7.80;;;3.47;;
70967;SDS011;58629;48.808;8.820;2023-12-04T04:42:36;9.33;;;3.90;;
70967;SDS011;58629;48.808;8.820;2023-12-04T04:45:02;9.63;;;3.67;;
70967;SDS011;58629;48.808;8.820;2023-12-04T04:47:27;7.37;;;3.37;;
70967;SDS011;58629;48.808;8.820;2023-12-04T04:49:53;7.32;;;3.78;;
70967;SDS011;58629;48.808;8.820;2023-12-04T04:52:18;9.40;;;3.70;;
70967;SDS011;58629;48.808;8.820;2023-12-04T04:54:43;8.00;;;3.43;;
70967;SDS011;58629;48.808;8.820;2023-12-04T04:57:09;7.20;;;3.43;;
70967;SDS011;58629;48.808;8.820;2023-12-04T04:59:34;7.20;;;3.23;;
70967;SDS011;58629;48.808;8.820;2023-12-04T05:01:59;5.17;;;2.60;;
70967;SDS011;58629;48.808;8.820;2023-12-04T05:04:25;6.70;;;2.90;;
70967;SDS011;58629;48.808;8.820;2023-12-04T05:06:50;8.33;;;3.50;;
70967;SDS011;58629;48.808;8.820;2023-12-04T05:09:15;7.78;;;3.35;;
70967;SDS011;58629;48.808;8.820;2023-12-04T05:11:41;8.27;;;3.57;;
70967;SDS011;58629;48.808;8.820;2023-12-04T05:14:06;8.90;;;3.93;;
70967;SDS011;58629;48.808;8.820;2023-12-04T05:16:31;9.07;;;4.23;;
70967;SDS011;58629;48.808;8.820;2023-12-04T05:18:57;9.43;;;3.70;;
70967;SDS011;58629;48.808;8.820;2023-12-04T05:21:22;7.50;;;3.33;;
70967;SDS011;58629;48.808;8.820;2023-12-04T05:23:47;8.23;;;3.70;;
70967;SDS011;58629;48.808;8.820;2023-12-04T05:26:13;7.45;;;3.45;;
70967;SDS011;58629;48.808;8.820;2023-12-04T05:28:38;9.20;;;4.47;;
70967;SDS011;58629;48.808;8.820;2023-12-04T05:31:04;8.27;;;3.77;;
70967;SDS011;58629;48.808;8.820;2023-12-04T05:33:30;9.07;;;3.75;;
70967;SDS011;58629;48.808;8.820;2023-12-04T05:35:55;7.40;;;3.70;;
70967;SDS011;58629;48.808;8.820;2023-12-04T05:38:21;9.50;;;3.93;;
70967;SDS011;58629;48.808;8.820;2023-12-04T05:40:46;8.97;;;4.00;;
70967;SDS011;58629;48.808;8.820;2023-12-04T05:43:11;8.57;;;3.90;;
70967;SDS011;58629;48.808;8.820;2023-12-04T05:45:38;6.88;;;3.42;;
70967;SDS011;58629;48.808;8.820;2023-12-04T05:48:04;11.87;;;4.70;;
70967;SDS011;58629;48.808;8.820;2023-12-04T05:50:29;11.50;;;4.85;;
70967;SDS011;58629;48.808;8.820;2023-12-04T05:52:55;11.03;;;4.63;;
70967;SDS011;58629;48.808;8.820;2023-12-04T05:55:20;10.83;;;4.40;;
70967;SDS011;58629;48.808;8.820;2023-12-04T05:57:45;9.00;;;4.00;;
70967;SDS011;58629;48.808;8.820;2023-12-04T06:00:11;13.47;;;5.50;;
70967;SDS011;58629;48.808;8.820;2023-12-04T06:02:43;10.38;;;4.70;;
70967;SDS011;58629;48.808;8.820;2023-12-04T06:05:10;9.85;;;4.60;;
70967;SDS011;58629;48.808;8.820;2023-12-04T06:07:36;9.07;;;4.17;;
70967;SDS011;58629;48.808;8.820;2023-12-04T06:10:02;9.15;;;4.18;;
70967;SDS011;58629;48.808;8.820;2023-12-04T06:12:31;8.68;;;3.95;;
70967;SDS011;58629;48.808;8.820;2023-12-04T06:14:57;8.57;;;3.70;;
70967;SDS011;58629;48.808;8.820;2023-12-04T06:17:23;7.57;;;3.58;;
70967;SDS011;58629;48.808;8.820;2023-12-04T06:19:49;8.07;;;3.45;;
70967;SDS011;58629;48.808;8.820;2023-12-04T06:22:14;8.20;;;3.63;;
70967;SDS011;58629;48.808;8.820;2023-12-04T06:24:40;7.55;;;3.75;;
70967;SDS011;58629;48.808;8.820;2023-12-04T06:27:06;7.28;;;3.22;;
70967;SDS011;58629;48.808;8.820;2023-12-04T06:29:34;7.30;;;3.75;;
70967;SDS011;58629;48.808;8.820;2023-12-04T06:32:00;7.73;;;3.70;;
70967;SDS011;58629;48.808;8.820;2023-12-04T06:34:26;9.20;;;4.22;;
70967;SDS011;58629;48.808;8.820;2023-12-04T06:36:51;11.03;;;4.70;;
70967;SDS011;58629;48.808;8.820;2023-12-04T06:39:17;11.20;;;4.47;;
70967;SDS011;58629;48.808;8.820;2023-12-04T06:41:43;11.67;;;5.03;;
70967;SDS011;58629;48.808;8.820;2023-12-04T06:44:09;8.70;;;3.90;;
70967;SDS011;58629;48.808;8.820;2023-12-04T06:46:38;7.40;;;3.63;;
70967;SDS011;58629;48.808;8.820;2023-12-04T06:49:06;8.48;;;3.53;;
70967;SDS011;58629;48.808;8.820;2023-12-04T06:51:31;6.57;;;3.15;;
70967;SDS011;58629;48.808;8.820;2023-12-04T06:53:57;9.10;;;3.72;;
70967;SDS011;58629;48.808;8.820;2023-12-04T06:56:23;10.00;;;4.40;;
70967;SDS011;58629;48.808;8.820;2023-12-04T06:58:48;8.83;;;4.20;;
70967;SDS011;58629;48.808;8.820;2023-12-04T07:01:13;9.80;;;3.87;;
70967;SDS011;58629;48.808;8.820;2023-12-04T07:03:39;8.63;;;3.90;;
70967;SDS011;58629;48.808;8.820;2023-12-04T07:06:04;7.63;;;3.70;;
70967;SDS011;58629;48.808;8.820;2023-12-04T07:08:30;10.60;;;4.43;;
70967;SDS011;58629;48.808;8.820;2023-12-04T07:10:55;11.37;;;4.97;;
70967;SDS011;58629;48.808;8.820;2023-12-04T07:13:21;13.93;;;5.67;;
70967;SDS011;58629;48.808;8.820;2023-12-04T07:15:46;13.17;;;5.87;;
70967;SDS011;58629;48.808;8.820;2023-12-04T07:18:11;11.17;;;4.80;;
70967;SDS011;58629;48.808;8.820;2023-12-04T07:20:37;12.98;;;5.15;;
70967;SDS011;58629;48.808;8.820;2023-12-04T07:23:02;10.37;;;4.53;;
70967;SDS011;58629;48.808;8.820;2023-12-04T07:25:28;10.03;;;4.50;;
70967;SDS011;58629;48.808;8.820;2023-12-04T07:27:53;11.10;;;4.80;;
70967;SDS011;58629;48.808;8.820;2023-12-04T07:30:18;9.40;;;4.10;;
70967;SDS011;58629;48.808;8.820;2023-12-04T07:32:45;9.45;;;4.28;;
70967;SDS011;58629;48.808;8.820;2023-12-04T07:35:11;8.40;;;4.07;;
70967;SDS011;58629;48.808;8.820;2023-12-04T07:37:36;8.95;;;3.90;;
70967;SDS011;58629;48.808;8.820;2023-12-04T07:40:02;11.63;;;4.63;;
70967;SDS011;58629;48.808;8.820;2023-12-04T07:42:30;10.73;;;4.97;;
70967;SDS011;58629;48.808;8.820;2023-12-04T07:44:56;10.67;;;5.10;;
70967;SDS011;58629;48.808;8.820;2023-12-04T07:47:21;10.03;;;4.80;;
70967;SDS011;58629;48.808;8.820;2023-12-04T07:49:47;11.07;;;4.88;;
70967;SDS011;58629;48.808;8.820;2023-12-04T07:52:13;10.00;;;4.60;;
70967;SDS011;58629;48.808;8.820;2023-12-04T07:54:38;9.70;;;4.10;;
70967;SDS011;58629;48.808;8.820;2023-12-04T07:57:04;8.63;;;4.47;;
70967;SDS011;58629;48.808;8.820;2023-12-04T07:59:29;10.83;;;4.90;;
70967;SDS011;58629;48.808;8.820;2023-12-04T08:01:55;9.63;;;4.60;;
70967;SDS011;58629;48.808;8.820;2023-12-04T08:04:20;12.87;;;5.10;;
70967;SDS011;58629;48.808;8.820;2023-12-04T08:06:45;11.38;;;5.03;;
70967;SDS011;58629;48.808;8.820;2023-12-04T08:09:11;13.30;;;6.55;;
70967;SDS011;58629;48.808;8.820;2023-12-04T08:11:37;12.37;;;5.93;;
70967;SDS011;58629;48.808;8.820;2023-12-04T08:14:03;11.73;;;5.28;;
70967;SDS011;58629;48.808;8.820;2023-12-04T08:16:28;13.50;;;6.15;;
70967;SDS011;58629;48.808;8.820;2023-12-04T08:18:54;11.65;;;5.60;;
70967;SDS011;58629;48.808;8.820;2023-12-04T08:21:20;12.77;;;5.30;;
70967;SDS011;58629;48.808;8.820;2023-12-04T08:23:45;11.90;;;5.15;;
70967;SDS011;58629;48.808;8.820;2023-12-04T08:26:11;9.33;;;4.80;;
70967;SDS011;58629;48.808;8.820;2023-12-04T08:28:37;15.43;;;5.53;;
70967;SDS011;58629;48.808;8.820;2023-12-04T08:31:06;12.45;;;5.80;;
70967;SDS011;58629;48.808;8.820;2023-12-04T08:33:35;12.27;;;6.07;;
70967;SDS011;58629;48.808;8.820;2023-12-04T08:36:00;12.50;;;6.07;;
70967;SDS011;58629;48.808;8.820;2023-12-04T08:38:26;11.50;;;5.70;;
70967;SDS011;58629;48.808;8.820;2023-12-04T08:40:51;12.60;;;5.45;;
70967;SDS011;58629;48.808;8.820;2023-12-04T08:43:16;14.40;;;5.60;;
70967;SDS011;58629;48.808;8.820;2023-12-04T08:45:43;15.35;;;6.85;;
70967;SDS011;58629;48.808;8.820;2023-12-04T08:48:10;10.90;;;5.33;;
70967;SDS011;58629;48.808;8.820;2023-12-04T08:50:35;11.63;;;5.25;;
70967;SDS011;58629;48.808;8.820;2023-12-04T08:53:01;9.93;;;4.80;;
70967;SDS011;58629;48.808;8.820;2023-12-04T08:55:27;10.35;;;4.95;;
70967;SDS011;58629;48.808;8.820;2023-12-04T08:57:53;9.37;;;4.87;;
70967;SDS011;58629;48.808;8.820;2023-12-04T09:00:19;9.82;;;4.47;;
70967;SDS011;58629;48.808;8.820;2023-12-04T09:02:44;10.80;;;5.37;;
70967;SDS011;58629;48.808;8.820;2023-12-04T09:05:10;9.90;;;5.17;;
70967;SDS011;58629;48.808;8.820;2023-12-04T09:07:35;10.75;;;5.47;;
70967;SDS011;58629;48.808;8.820;2023-12-04T09:10:01;9.37;;;4.90;;
70967;SDS011;58629;48.808;8.820;2023-12-04T09:12:27;9.73;;;4.97;;
70967;SDS011;58629;48.808;8.820;2023-12-04T09:14:52;9.83;;;5.70;;
70967;SDS011;58629;48.808;8.820;2023-12-04T09:17:18;7.93;;;4.93;;
70967;SDS011;58629;48.808;8.820;2023-12-04T09:19:43;9.33;;;5.00;;
70967;SDS011;58629;48.808;8.820;2023-12-04T09:22:08;9.13;;;4.83;;
70967;SDS011;58629;48.808;8.820;2023-12-04T09:24:34;8.88;;;5.35;;
70967;SDS011;58629;48.808;8.820;2023-12-04T09:26:59;9.70;;;5.28;;
70967;SDS011;58629;48.808;8.820;2023-12-04T09:29:25;8.83;;;5.30;;
70967;SDS011;58629;48.808;8.820;2023-12-04T09:31:53;9.73;;;5.33;;
70967;SDS011;58629;48.808;8.820;2023-12-04T09:34:19;9.15;;;5.20;;
70967;SDS011;58629;48.808;8.820;2023-12-04T09:36:45;10.43;;;5.73;;
70967;SDS011;58629;48.808;8.820;2023-12-04T09:39:12;8.88;;;4.82;;
70967;SDS011;58629;48.808;8.820;2023-12-04T09:41:38;11.05;;;5.50;;
70967;SDS011;58629;48.808;8.820;2023-12-04T09:44:04;10.87;;;5.70;;
70967;SDS011;58629;48.808;8.820;2023-12-04T09:46:32;12.23;;;6.35;;
70967;SDS011;58629;48.808;8.820;2023-12-04T09:48:59;15.18;;;8.30;;
70967;SDS011;58629;48.808;8.820;2023-12-04T09:51:25;10.35;;;5.97;;
70967;SDS011;58629;48.808;8.820;2023-12-04T09:53:53;8.90;;;5.07;;
70967;SDS011;58629;48.808;8.820;2023-12-04T09:56:20;8.63;;;4.90;;
70967;SDS011;58629;48.808;8.820;2023-12-04T09:58:47;8.05;;;4.72;;
70967;SDS011;58629;48.808;8.820;2023-12-04T10:01:17;8.35;;;4.90;;
70967;SDS011;58629;48.808;8.820;2023-12-04T10:03:43;9.03;;;5.10;;
70967;SDS011;58629;48.808;8.820;2023-12-04T10:06:09;8.93;;;4.70;;
70967;SDS011;58629;48.808;8.820;2023-12-04T10:08:37;7.85;;;4.30;;
70967;SDS011;58629;48.808;8.820;2023-12-04T10:11:02;7.70;;;4.40;;
70967;SDS011;58629;48.808;8.820;2023-12-04T10:13:28;8.38;;;4.70;;
70967;SDS011;58629;48.808;8.820;2023-12-04T10:15:53;9.90;;;5.53;;
70967;SDS011;58629;48.808;8.820;2023-12-04T10:18:25;8.23;;;4.73;;
70967;SDS011;58629;48.808;8.820;2023-12-04T10:20:52;9.02;;;5.10;;
70967;SDS011;58629;48.808;8.820;2023-12-04T10:23:20;9.77;;;5.45;;
70967;SDS011;58629;48.808;8.820;2023-12-04T10:25:47;8.87;;;4.90;;
70967;SDS011;58629;48.808;8.820;2023-12-04T10:28:15;8.10;;;4.40;;
70967;SDS011;58629;48.808;8.820;2023-12-04T10:30:40;6.47;;;4.05;;
70967;SDS011;58629;48.808;8.820;2023-12-04T10:33:07;10.50;;;5.38;;
70967;SDS011;58629;48.808;8.820;2023-12-04T10:35:33;9.75;;;5.50;;
70967;SDS011;58629;48.808;8.820;2023-12-04T10:38:03;9.18;;;4.82;;
70967;SDS011;58629;48.808;8.820;2023-12-04T10:40:31;10.70;;;5.60;;
70967;SDS011;58629;48.808;8.820;2023-12-04T10:43:11;10.23;;;5.63;;
70967;SDS011;58629;48.808;8.820;2023-12-04T10:45:40;8.98;;;4.90;;
70967;SDS011;58629;48.808;8.820;2023-12-04T10:48:07;9.50;;;4.90;;
70967;SDS011;58629;48.808;8.820;2023-12-04T10:50:43;8.18;;;4.70;;
70967;SDS011;58629;48.808;8.820;2023-12-04T10:53:13;8.10;;;4.45;;
70967;SDS011;58629;48.808;8.820;2023-12-04T10:55:40;8.17;;;4.40;;
70967;SDS011;58629;48.808;8.820;2023-12-04T10:58:10;8.02;;;4.03;;
70967;SDS011;58629;48.808;8.820;2023-12-04T11:00:46;8.68;;;4.60;;
70967;SDS011;58629;48.808;8.820;2023-12-04T11:03:19;7.72;;;4.15;;
70967;SDS011;58629;48.808;8.820;2023-12-04T11:05:50;8.52;;;4.35;;
70967;SDS011;58629;48.808;8.820;2023-12-04T11:08:19;8.70;;;4.43;;
70967;SDS011;58629;48.808;8.820;2023-12-04T11:11:01;7.75;;;4.05;;
70967;SDS011;58629;48.808;8.820;2023-12-04T11:13:29;7.40;;;3.85;;
70967;SDS011;58629;48.808;8.820;2023-12-04T11:18:33;8.13;;;4.07;;
70967;SDS011;58629;48.808;8.820;2023-12-04T11:21:04;8.17;;;4.00;;
70967;SDS011;58629;48.808;8.820;2023-12-04T11:23:33;7.07;;;3.78;;
70967;SDS011;58629;48.808;8.820;2023-12-04T11:25:59;6.53;;;3.70;;
70967;SDS011;58629;48.808;8.820;2023-12-04T11:28:26;8.23;;;4.20;;
70967;SDS011;58629;48.808;8.820;2023-12-04T11:30:53;9.77;;;5.25;;
70967;SDS011;58629;48.808;8.820;2023-12-04T11:33:19;10.33;;;4.90;;
70967;SDS011;58629;48.808;8.820;2023-12-04T11:35:45;11.05;;;5.50;;
70967;SDS011;58629;48.808;8.820;2023-12-04T11:38:14;9.77;;;5.22;;
70967;SDS011;58629;48.808;8.820;2023-12-04T11:40:40;10.20;;;5.03;;
70967;SDS011;58629;48.808;8.820;2023-12-04T11:43:26;11.23;;;5.70;;
70967;SDS011;58629;48.808;8.820;2023-12-04T11:46:06;10.77;;;5.70;;
70967;SDS011;58629;48.808;8.820;2023-12-04T11:48:33;11.85;;;6.05;;
70967;SDS011;58629;48.808;8.820;2023-12-04T11:50:59;10.60;;;5.73;;
70967;SDS011;58629;48.808;8.820;2023-12-04T11:53:25;11.02;;;6.03;;
70967;SDS011;58629;48.808;8.820;2023-12-04T11:55:51;11.93;;;6.10;;
70967;SDS011;58629;48.808;8.820;2023-12-04T11:58:21;10.65;;;5.60;;
70967;SDS011;58629;48.808;8.820;2023-12-04T12:00:47;10.93;;;5.00;;
70967;SDS011;58629;48.808;8.820;2023-12-04T12:03:14;9.68;;;4.93;;
70967;SDS011;58629;48.808;8.820;2023-12-04T12:05:40;11.75;;;5.63;;
70967;SDS011;58629;48.808;8.820;2023-12-04T12:08:06;11.63;;;6.10;;
70967;SDS011;58629;48.808;8.820;2023-12-04T12:10:33;11.85;;;6.05;;
70967;SDS011;58629;48.808;8.820;2023-12-04T12:12:59;13.20;;;6.80;;
70967;SDS011;58629;48.808;8.820;2023-12-04T12:15:24;13.37;;;6.97;;
70967;SDS011;58629;48.808;8.820;2023-12-04T12:17:50;12.65;;;6.63;;
70967;SDS011;58629;48.808;8.820;2023-12-04T12:20:19;13.65;;;6.97;;
70967;SDS011;58629;48.808;8.820;2023-12-04T12:22:48;11.93;;;6.32;;
70967;SDS011;58629;48.808;8.820;2023-12-04T12:25:14;12.90;;;6.63;;
70967;SDS011;58629;48.808;8.820;2023-12-04T12:27:40;12.68;;;6.82;;
70967;SDS011;58629;48.808;8.820;2023-12-04T12:30:06;13.37;;;6.67;;
70967;SDS011;58629;48.808;8.820;2023-12-04T12:32:35;14.38;;;6.40;;
70967;SDS011;58629;48.808;8.820;2023-12-04T12:35:00;13.15;;;6.28;;
70967;SDS011;58629;48.808;8.820;2023-12-04T12:37:26;14.18;;;7.10;;
70967;SDS011;58629;48.808;8.820;2023-12-04T12:39:53;15.02;;;6.93;;
70967;SDS011;58629;48.808;8.820;2023-12-04T12:42:25;14.27;;;6.87;;
70967;SDS011;58629;48.808;8.820;2023-12-04T12:44:51;12.68;;;6.53;;
70967;SDS011;58629;48.808;8.820;2023-12-04T12:47:18;13.13;;;6.10;;
70967;SDS011;58629;48.808;8.820;2023-12-04T12:49:44;13.70;;;6.35;;
70967;SDS011;58629;48.808;8.820;2023-12-04T12:52:10;11.43;;;6.00;;
70967;SDS011;58629;48.808;8.820;2023-12-04T12:54:42;12.85;;;5.75;;
70967;SDS011;58629;48.808;8.820;2023-12-04T12:57:09;11.85;;;5.47;;
70967;SDS011;58629;48.808;8.820;2023-12-04T12:59:36;12.10;;;6.17;;
70967;SDS011;58629;48.808;8.820;2023-12-04T13:02:03;10.63;;;5.15;;
70967;SDS011;58629;48.808;8.820;2023-12-04T13:04:42;11.52;;;5.40;;
70967;SDS011;58629;48.808;8.820;2023-12-04T13:07:09;9.98;;;4.82;;
70967;SDS011;58629;48.808;8.820;2023-12-04T13:09:35;8.52;;;4.80;;
70967;SDS011;58629;48.808;8.820;2023-12-04T13:12:01;7.57;;;3.80;;
70967;SDS011;58629;48.808;8.820;2023-12-04T13:14:29;7.53;;;3.90;;
70967;SDS011;58629;48.808;8.820;2023-12-04T13:16:54;7.10;;;3.73;;
70967;SDS011;58629;48.808;8.820;2023-12-04T13:19:21;6.18;;;3.25;;
70967;SDS011;58629;48.808;8.820;2023-12-04T13:21:47;6.22;;;3.00;;
70967;SDS011;58629;48.808;8.820;2023-12-04T13:24:13;6.13;;;2.70;;
70967;SDS011;58629;48.808;8.820;2023-12-04T13:26:38;6.40;;;2.93;;
70967;SDS011;58629;48.808;8.820;2023-12-04T13:29:04;6.60;;;2.83;;
70967;SDS011;58629;48.808;8.820;2023-12-04T13:31:31;5.05;;;2.92;;
70967;SDS011;58629;48.808;8.820;2023-12-04T13:33:57;5.55;;;2.80;;
70967;SDS011;58629;48.808;8.820;2023-12-04T13:36:22;5.23;;;2.53;;
70967;SDS011;58629;48.808;8.820;2023-12-04T13:38:49;5.38;;;2.80;;
70967;SDS011;58629;48.808;8.820;2023-12-04T13:41:14;5.23;;;2.83;;
70967;SDS011;58629;48.808;8.820;2023-12-04T13:43:58;6.22;;;2.78;;
70967;SDS011;58629;48.808;8.820;2023-12-04T13:46:25;5.78;;;2.70;;
70967;SDS011;58629;48.808;8.820;2023-12-04T13:48:52;5.97;;;2.20;;
70967;SDS011;58629;48.808;8.820;2023-12-04T13:51:17;4.72;;;2.35;;
70967;SDS011;58629;48.808;8.820;2023-12-04T13:53:44;4.85;;;2.50;;
70967;SDS011;58629;48.808;8.820;2023-12-04T13:56:13;4.87;;;2.20;;
70967;SDS011;58629;48.808;8.820;2023-12-04T13:58:48;4.20;;;2.20;;
70967;SDS011;58629;48.808;8.820;2023-12-04T14:01:20;4.55;;;2.30;;
70967;SDS011;58629;48.808;8.820;2023-12-04T14:03:48;5.00;;;2.35;;
70967;SDS011;58629;48.808;8.820;2023-12-04T14:06:14;3.87;;;2.17;;
70967;SDS011;58629;48.808;8.820;2023-12-04T14:08:42;4.55;;;2.20;;
70967;SDS011;58629;48.808;8.820;2023-12-04T14:11:08;3.90;;;2.20;;
70967;SDS011;58629;48.808;8.820;2023-12-04T14:13:36;3.97;;;2.25;;
70967;SDS011;58629;48.808;8.820;2023-12-04T14:16:01;4.17;;;2.30;;
70967;SDS011;58629;48.808;8.820;2023-12-04T14:18:27;4.40;;;2.00;;
70967;SDS011;58629;48.808;8.820;2023-12-04T14:20:55;4.72;;;2.10;;
70967;SDS011;58629;48.808;8.820;2023-12-04T14:23:21;3.88;;;1.90;;
70967;SDS011;58629;48.808;8.820;2023-12-04T14:25:46;4.30;;;1.90;;
70967;SDS011;58629;48.808;8.820;2023-12-04T14:28:12;3.53;;;1.87;;
70967;SDS011;58629;48.808;8.820;2023-12-04T14:30:37;3.83;;;1.80;;
70967;SDS011;58629;48.808;8.820;2023-12-04T14:33:02;3.23;;;1.60;;
70967;SDS011;58629;48.808;8.820;2023-12-04T14:35:28;2.72;;;1.50;;
70967;SDS011;58629;48.808;8.820;2023-12-04T14:37:53;5.22;;;2.38;;